createdAt,value
2018-06-22T00:01:37.207Z,15.79
2018-06-22T00:04:05.831Z,15.56
2018-06-22T00:06:34.564Z,15.53
2018-06-22T00:09:03.262Z,15.62
2018-06-22T00:11:31.744Z,15.75
2018-06-22T00:14:00.208Z,15.70
2018-06-22T00:16:28.652Z,15.64
2018-06-22T00:18:57.155Z,15.58
2018-06-22T00:21:25.669Z,15.39
2018-06-22T00:23:54.165Z,15.22
2018-06-22T00:26:22.716Z,15.55
2018-06-22T00:28:51.709Z,15.67
2018-06-22T00:31:20.239Z,15.43
2018-06-22T00:33:48.783Z,15.37
2018-06-22T00:36:17.316Z,15.34
2018-06-22T00:38:45.752Z,15.21
2018-06-22T00:41:14.155Z,15.34
2018-06-22T00:43:42.609Z,15.49
2018-06-22T00:46:11.226Z,15.43
2018-06-22T00:48:39.768Z,15.44
2018-06-22T00:51:08.157Z,15.11
2018-06-22T00:53:47.734Z,15.22
2018-06-22T00:56:16.231Z,15.14
2018-06-22T00:58:44.776Z,15.15
2018-06-22T01:01:13.290Z,15.14
2018-06-22T01:03:41.834Z,14.93
2018-06-22T01:06:10.544Z,14.92
2018-06-22T01:08:38.998Z,14.74
2018-06-22T01:11:07.614Z,14.64
2018-06-22T01:13:36.094Z,15.00
2018-06-22T01:16:04.934Z,14.93
2018-06-22T01:18:33.471Z,14.95
2018-06-22T01:21:01.916Z,14.74
2018-06-22T01:23:30.314Z,14.83
2018-06-22T01:25:58.754Z,14.91
2018-06-22T01:28:27.703Z,14.74
2018-06-22T01:30:56.177Z,14.76
2018-06-22T01:33:24.696Z,14.39
2018-06-22T01:35:53.759Z,14.71
2018-06-22T01:38:22.221Z,14.50
2018-06-22T01:40:50.720Z,14.43
2018-06-22T01:43:20.128Z,14.27
2018-06-22T01:45:48.637Z,14.45
2018-06-22T01:48:17.160Z,14.64
2018-06-22T01:50:45.660Z,14.71
2018-06-22T01:53:14.148Z,14.75
2018-06-22T01:55:48.972Z,14.55
2018-06-22T01:58:17.540Z,14.27
2018-06-22T02:00:46.014Z,14.30
2018-06-22T02:03:14.480Z,14.56
2018-06-22T02:05:42.938Z,14.61
2018-06-22T02:08:11.460Z,14.63
2018-06-22T02:10:40.003Z,14.54
2018-06-22T02:13:08.514Z,14.31
2018-06-22T02:15:37.046Z,14.35
2018-06-22T02:18:05.678Z,14.24
2018-06-22T02:20:34.387Z,14.00
2018-06-22T02:23:02.865Z,14.03
2018-06-22T02:25:31.365Z,13.91
2018-06-22T02:28:00.422Z,14.08
2018-06-22T02:30:28.885Z,13.75
2018-06-22T02:32:57.414Z,13.94
2018-06-22T02:35:26.648Z,13.95
2018-06-22T02:37:55.109Z,13.74
2018-06-22T02:40:23.542Z,14.01
2018-06-22T02:42:52.004Z,13.70
2018-06-22T02:45:20.503Z,14.02
2018-06-22T02:47:49.725Z,14.18
2018-06-22T02:50:18.111Z,13.81
2018-06-22T02:52:46.659Z,14.01
2018-06-22T02:55:15.089Z,13.86
2018-06-22T02:57:43.855Z,14.12
2018-06-22T03:00:12.368Z,14.12
2018-06-22T03:02:40.929Z,13.90
2018-06-22T03:05:09.824Z,14.04
2018-06-22T03:07:38.380Z,13.75
2018-06-22T03:10:07.279Z,13.75
2018-06-22T03:12:35.871Z,13.55
2018-06-22T03:15:04.758Z,13.51
2018-06-22T03:17:33.189Z,13.68
2018-06-22T03:20:01.626Z,13.42
2018-06-22T03:22:30.154Z,13.61
2018-06-22T03:24:58.633Z,13.22
2018-06-22T03:27:27.058Z,13.58
2018-06-22T03:29:55.668Z,13.63
2018-06-22T03:32:24.093Z,13.61
2018-06-22T03:34:52.594Z,13.48
2018-06-22T03:37:21.395Z,13.41
2018-06-22T03:39:49.824Z,13.48
2018-06-22T03:42:18.274Z,13.53
2018-06-22T03:44:46.747Z,13.41
2018-06-22T03:47:15.210Z,13.48
2018-06-22T03:49:43.648Z,13.74
2018-06-22T03:52:12.289Z,13.55
2018-06-22T03:54:40.729Z,13.78
2018-06-22T03:57:09.214Z,13.31
2018-06-22T03:59:38.101Z,13.37
2018-06-22T04:02:07.363Z,13.49
2018-06-22T04:04:35.837Z,13.18
2018-06-22T04:07:04.591Z,12.74
2018-06-22T04:09:33.129Z,12.94
2018-06-22T04:12:02.931Z,12.79
2018-06-22T04:14:31.479Z,12.67
2018-06-22T04:17:00.014Z,13.04
2018-06-22T04:19:28.555Z,13.18
2018-06-22T04:21:57.050Z,13.46
2018-06-22T04:24:25.523Z,12.82
2018-06-22T04:26:54.510Z,12.81
2018-06-22T04:29:22.963Z,13.28
2018-06-22T04:31:51.470Z,13.53
2018-06-22T04:34:20.651Z,13.53
2018-06-22T04:36:49.181Z,13.27
2018-06-22T04:39:18.816Z,13.06
2018-06-22T04:41:47.410Z,13.31
2018-06-22T04:44:16.839Z,13.41
2018-06-22T04:46:45.414Z,13.33
2018-06-22T04:49:14.596Z,13.27
2018-06-22T04:51:43.103Z,13.25
2018-06-22T04:54:12.096Z,13.14
2018-06-22T04:56:40.661Z,13.18
2018-06-22T04:59:09.166Z,13.41
2018-06-22T05:01:37.760Z,13.53
2018-06-22T05:04:06.401Z,13.42
2018-06-22T05:06:34.858Z,13.51
2018-06-22T05:09:03.565Z,13.57
2018-06-22T05:11:31.989Z,13.54
2018-06-22T05:14:00.639Z,13.59
2018-06-22T05:16:29.077Z,13.56
2018-06-22T05:18:57.833Z,13.52
2018-06-22T05:21:26.259Z,13.57
2018-06-22T05:23:54.771Z,13.42
2018-06-22T05:26:23.722Z,13.84
2018-06-22T05:28:52.218Z,14.18
2018-06-22T05:31:20.700Z,14.01
2018-06-22T05:33:49.297Z,14.21
2018-06-22T05:36:17.722Z,13.92
2018-06-22T05:38:46.169Z,13.86
2018-06-22T05:41:14.897Z,13.50
2018-06-22T05:43:43.381Z,13.51
2018-06-22T05:46:12.460Z,14.01
2018-06-22T05:48:40.919Z,14.17
2018-06-22T05:51:09.349Z,13.97
2018-06-22T05:53:38.026Z,14.12
2018-06-22T05:56:06.500Z,14.32
2018-06-22T05:58:35.072Z,14.51
2018-06-22T06:01:03.579Z,14.60
2018-06-22T06:03:32.180Z,14.93
2018-06-22T06:06:00.750Z,14.74
2018-06-22T06:08:29.206Z,14.55
2018-06-22T06:10:57.770Z,14.67
2018-06-22T06:13:26.252Z,14.97
2018-06-22T06:15:54.750Z,14.65
2018-06-22T06:18:23.212Z,14.75
2018-06-22T06:20:51.709Z,14.66
2018-06-22T06:23:20.159Z,14.59
2018-06-22T06:25:49.280Z,14.54
2018-06-22T06:28:17.692Z,14.49
2018-06-22T06:30:46.214Z,14.43
2018-06-22T06:33:14.668Z,14.42
2018-06-22T06:35:43.146Z,14.70
2018-06-22T06:38:11.602Z,14.77
2018-06-22T06:40:40.096Z,15.04
2018-06-22T06:43:08.613Z,15.18
2018-06-22T06:45:37.121Z,14.97
2018-06-22T06:48:05.648Z,15.00
2018-06-22T06:50:34.204Z,14.98
2018-06-22T06:53:02.743Z,15.33
2018-06-22T06:55:31.499Z,15.36
2018-06-22T06:58:00.045Z,15.08
2018-06-22T07:00:28.574Z,15.08
2018-06-22T07:02:57.093Z,15.21
2018-06-22T07:05:25.593Z,15.10
2018-06-22T07:07:54.423Z,15.28
2018-06-22T07:10:22.896Z,15.25
2018-06-22T07:12:51.322Z,15.20
2018-06-22T07:15:19.849Z,15.56
2018-06-22T07:17:48.376Z,15.42
2018-06-22T07:20:17.000Z,15.82
2018-06-22T07:22:45.622Z,16.13
2018-06-22T07:25:14.139Z,16.16
2018-06-22T07:27:42.640Z,16.07
2018-06-22T07:30:11.199Z,16.23
2018-06-22T07:32:39.834Z,15.89
2018-06-22T07:35:08.933Z,16.11
2018-06-22T07:37:37.494Z,16.59
2018-06-22T07:40:05.995Z,16.68
2018-06-22T07:42:34.505Z,16.88
2018-06-22T07:45:03.066Z,17.12
2018-06-22T07:47:31.668Z,17.03
2018-06-22T07:50:00.106Z,16.66
2018-06-22T07:52:28.690Z,16.61
2018-06-22T07:54:57.173Z,16.64
2018-06-22T07:57:25.712Z,16.74
2018-06-22T07:59:54.182Z,16.45
2018-06-22T08:02:22.630Z,16.22
2018-06-22T08:04:51.240Z,16.35
2018-06-22T08:07:19.724Z,16.50
2018-06-22T08:09:48.508Z,17.02
2018-06-22T08:12:17.026Z,17.15
2018-06-22T08:14:45.637Z,17.23
2018-06-22T08:17:14.087Z,17.33
2018-06-22T08:19:42.579Z,17.07
2018-06-22T08:22:11.107Z,17.14
2018-06-22T08:24:39.642Z,17.24
2018-06-22T08:27:08.129Z,17.64
2018-06-22T08:29:36.823Z,16.98
2018-06-22T08:32:05.398Z,17.27
2018-06-22T08:34:33.888Z,17.49
2018-06-22T08:37:02.712Z,17.54
2018-06-22T08:39:31.195Z,17.51
2018-06-22T08:42:00.535Z,17.39
2018-06-22T08:44:29.154Z,17.40
2018-06-22T08:46:57.561Z,17.43
2018-06-22T08:49:26.127Z,17.48
2018-06-22T08:51:54.706Z,17.61
2018-06-22T08:54:23.358Z,17.50
2018-06-22T08:56:51.888Z,17.78
2018-06-22T08:59:20.557Z,17.92
2018-06-22T09:01:49.098Z,18.09
2018-06-22T09:04:20.611Z,17.85
2018-06-22T09:06:49.173Z,17.63
2018-06-22T09:09:17.722Z,17.67
2018-06-22T09:11:46.328Z,18.06
2018-06-22T09:14:14.900Z,18.28
2018-06-22T09:16:43.442Z,18.45
2018-06-22T09:19:11.908Z,18.59
2018-06-22T09:21:40.734Z,18.78
2018-06-22T09:24:09.254Z,19.07
2018-06-22T09:26:37.708Z,18.99
2018-06-22T09:29:06.328Z,19.10
2018-06-22T09:31:34.910Z,19.09
2018-06-22T09:34:03.620Z,19.33
2018-06-22T09:36:32.395Z,19.42
2018-06-22T09:39:00.873Z,19.58
2018-06-22T09:41:29.478Z,19.39
2018-06-22T09:43:57.904Z,19.06
2018-06-22T09:46:26.365Z,19.18
2018-06-22T09:48:54.919Z,19.21
2018-06-22T09:51:23.412Z,19.07
2018-06-22T09:53:51.942Z,19.03
2018-06-22T09:56:20.448Z,19.48
2018-06-22T09:58:48.928Z,19.49
2018-06-22T10:01:17.538Z,18.94
2018-06-22T10:03:46.020Z,18.60
2018-06-22T10:06:14.604Z,18.73
2018-06-22T10:08:43.255Z,18.95
2018-06-22T10:11:11.835Z,18.89
2018-06-22T10:13:40.404Z,19.34
2018-06-22T10:16:09.017Z,19.52
2018-06-22T10:18:37.624Z,19.69
2018-06-22T10:21:06.147Z,19.77
2018-06-22T10:23:34.649Z,19.74
2018-06-22T10:26:03.230Z,19.69
2018-06-22T10:28:31.800Z,19.98
2018-06-22T10:31:00.291Z,19.70
2018-06-22T10:33:28.849Z,19.97
2018-06-22T10:35:57.312Z,20.27
2018-06-22T10:38:25.761Z,20.03
2018-06-22T10:40:54.432Z,20.17
2018-06-22T10:43:22.938Z,20.13
2018-06-22T10:45:52.053Z,19.86
2018-06-22T10:48:20.585Z,19.73
2018-06-22T10:50:49.061Z,19.68
2018-06-22T10:53:17.776Z,19.88
2018-06-22T10:55:46.199Z,20.01
2018-06-22T10:58:14.686Z,19.89
2018-06-22T11:00:43.200Z,20.04
2018-06-22T11:03:11.785Z,20.29
2018-06-22T11:05:40.322Z,20.09
2018-06-22T11:08:08.776Z,20.06
2018-06-22T11:10:37.414Z,19.86
2018-06-22T11:13:05.995Z,20.11
2018-06-22T11:15:34.665Z,20.02
2018-06-22T11:18:03.160Z,19.90
2018-06-22T11:20:31.644Z,20.63
2018-06-22T11:23:00.205Z,20.33
2018-06-22T11:25:28.706Z,19.79
2018-06-22T11:27:57.212Z,19.82
2018-06-22T11:30:25.896Z,19.63
2018-06-22T11:32:54.397Z,19.76
2018-06-22T11:35:23.061Z,19.71
2018-06-22T11:37:51.656Z,19.91
2018-06-22T11:40:20.282Z,19.96
2018-06-22T11:42:48.779Z,19.94
2018-06-22T11:45:17.273Z,20.30
2018-06-22T11:47:46.829Z,20.37
2018-06-22T11:50:15.392Z,20.47
2018-06-22T11:52:43.881Z,20.92
2018-06-22T11:55:12.259Z,20.38
2018-06-22T11:57:40.802Z,20.23
2018-06-22T12:00:09.394Z,20.62
2018-06-22T12:02:37.944Z,20.21
2018-06-22T12:05:06.483Z,19.93
2018-06-22T12:07:34.984Z,19.91
2018-06-22T12:10:03.700Z,19.97
2018-06-22T12:12:32.266Z,20.50
2018-06-22T12:15:00.896Z,20.80
2018-06-22T12:17:29.458Z,20.73
2018-06-22T12:19:58.068Z,20.88
2018-06-22T12:22:27.287Z,20.58
2018-06-22T12:24:55.809Z,20.34
2018-06-22T12:27:24.460Z,20.41
2018-06-22T12:29:52.991Z,20.91
2018-06-22T12:32:21.518Z,20.53
2018-06-22T12:34:50.600Z,20.30
2018-06-22T12:37:19.111Z,20.87
2018-06-22T12:39:47.554Z,20.85
2018-06-22T12:42:16.174Z,20.83
2018-06-22T12:44:45.000Z,20.85
2018-06-22T12:47:13.632Z,20.89
2018-06-22T12:49:42.856Z,20.52
2018-06-22T12:52:11.342Z,20.68
2018-06-22T12:54:39.896Z,20.34
2018-06-22T12:57:08.418Z,20.16
2018-06-22T12:59:37.177Z,20.53
2018-06-22T13:02:05.829Z,20.73
2018-06-22T13:04:34.336Z,20.85
2018-06-22T13:07:02.850Z,20.72
2018-06-22T13:09:31.439Z,20.75
2018-06-22T13:12:00.629Z,20.64
2018-06-22T13:14:29.189Z,20.77
2018-06-22T13:16:58.181Z,20.23
2018-06-22T13:19:26.683Z,19.78
2018-06-22T13:21:56.106Z,20.04
2018-06-22T13:24:25.700Z,20.36
2018-06-22T13:26:54.569Z,20.54
2018-06-22T13:29:23.459Z,20.62
2018-06-22T13:31:51.910Z,20.97
2018-06-22T13:34:20.435Z,20.87
2018-06-22T13:36:49.147Z,21.49
2018-06-22T13:39:19.073Z,21.43
2018-06-22T13:41:48.634Z,21.68
2018-06-22T13:44:17.863Z,21.79
2018-06-22T13:46:46.505Z,21.65
2018-06-22T13:49:14.982Z,21.45
2018-06-22T13:51:43.614Z,20.90
2018-06-22T13:54:12.149Z,21.22
2018-06-22T13:56:41.050Z,21.08
2018-06-22T13:59:09.614Z,20.84
2018-06-22T14:01:38.672Z,20.36
2018-06-22T14:05:10.254Z,20.95
2018-06-22T14:07:38.770Z,21.14
2018-06-22T14:10:07.364Z,20.78
2018-06-22T14:12:35.870Z,20.54
2018-06-22T14:15:04.438Z,20.45
2018-06-22T14:17:33.086Z,20.48
2018-06-22T14:20:01.679Z,20.21
2018-06-22T14:22:30.277Z,19.90
2018-06-22T14:24:58.747Z,19.82
2018-06-22T14:27:28.023Z,19.81
2018-06-22T14:29:56.556Z,19.85
2018-06-22T14:32:25.128Z,20.32
2018-06-22T14:34:53.826Z,20.23
2018-06-22T14:37:22.357Z,20.59
2018-06-22T14:39:51.000Z,20.42
2018-06-22T14:42:19.489Z,20.19
2018-06-22T14:44:47.985Z,20.34
2018-06-22T14:47:16.654Z,20.16
2018-06-22T14:49:46.836Z,20.32
2018-06-22T14:52:15.459Z,19.91
2018-06-22T14:54:49.316Z,19.54
2018-06-22T14:57:23.340Z,19.58
2018-06-22T14:59:56.985Z,19.82
2018-06-22T15:02:30.932Z,19.75
2018-06-22T15:05:04.747Z,20.28
2018-06-22T15:07:39.620Z,20.22
2018-06-22T15:10:09.581Z,20.19
2018-06-22T15:12:43.777Z,20.11
2018-06-22T15:15:15.814Z,20.12
2018-06-22T15:17:52.824Z,20.50
2018-06-22T15:20:29.265Z,20.72
2018-06-22T15:23:00.962Z,20.79
2018-06-22T15:25:32.760Z,20.94
2018-06-22T15:28:03.799Z,20.62
2018-06-22T15:30:33.975Z,20.78
2018-06-22T15:33:06.232Z,21.29
2018-06-22T15:35:41.834Z,21.19
2018-06-22T15:38:16.468Z,21.27
2018-06-22T15:40:51.533Z,21.70
2018-06-22T15:43:26.289Z,21.79
2018-06-22T15:46:01.201Z,21.55
2018-06-22T15:48:35.740Z,21.21
2018-06-22T15:51:09.557Z,20.50
2018-06-22T15:53:43.200Z,20.25
2018-06-22T15:56:11.772Z,20.04
2018-06-22T15:58:40.421Z,19.90
2018-06-22T16:01:09.010Z,20.25
2018-06-22T16:03:42.735Z,20.53
2018-06-22T16:06:11.221Z,20.42
2018-06-22T16:08:39.808Z,20.40
2018-06-22T16:11:08.530Z,20.41
2018-06-22T16:13:37.217Z,20.62
2018-06-22T16:16:11.085Z,20.41
2018-06-22T16:18:44.822Z,20.39
2018-06-22T16:21:18.641Z,20.59
2018-06-22T16:23:52.629Z,20.46
2018-06-22T16:26:26.452Z,20.43
2018-06-22T16:28:55.002Z,20.03
2018-06-22T16:31:23.510Z,19.97
2018-06-22T16:33:55.950Z,19.78
2018-06-22T16:36:25.493Z,20.16
2018-06-22T16:38:54.367Z,20.45
2018-06-22T16:41:23.026Z,20.46
2018-06-22T16:43:51.554Z,19.89
2018-06-22T16:46:20.135Z,20.04
2018-06-22T16:48:48.657Z,19.89
2018-06-22T16:51:17.249Z,19.99
2018-06-22T16:53:45.749Z,20.21
2018-06-22T16:56:14.285Z,19.68
2018-06-22T16:58:42.738Z,19.84
2018-06-22T17:01:12.152Z,19.35
2018-06-22T17:03:40.668Z,19.49
2018-06-22T17:06:09.296Z,19.46
2018-06-22T17:08:42.857Z,19.34
2018-06-22T17:11:16.405Z,19.23
2018-06-22T17:13:50.073Z,19.24
2018-06-22T17:16:24.128Z,19.29
2018-06-22T17:18:55.403Z,19.41
2018-06-22T17:21:24.011Z,19.20
2018-06-22T17:23:52.847Z,19.32
2018-06-22T17:26:21.282Z,19.34
2018-06-22T17:28:49.847Z,19.43
2018-06-22T17:31:18.474Z,19.01
2018-06-22T17:33:47.078Z,18.89
2018-06-22T17:36:15.739Z,18.87
2018-06-22T17:38:44.316Z,18.58
2018-06-22T17:41:13.410Z,18.83
2018-06-22T17:43:41.927Z,18.56
2018-06-22T17:46:10.762Z,18.57
2018-06-22T17:48:39.278Z,18.96
2018-06-22T17:51:07.756Z,18.98
2018-06-22T17:53:36.406Z,18.94
2018-06-22T17:56:05.030Z,19.13
2018-06-22T17:58:34.539Z,19.14
2018-06-22T18:01:08.360Z,19.33
2018-06-22T18:03:42.167Z,19.29
2018-06-22T18:06:16.056Z,19.29
2018-06-22T18:08:46.860Z,19.20
2018-06-22T18:11:20.657Z,19.38
2018-06-22T18:13:49.151Z,19.26
2018-06-22T18:16:17.616Z,19.30
2018-06-22T18:18:46.192Z,19.17
2018-06-22T18:21:14.682Z,19.29
2018-06-22T18:23:43.565Z,19.17
2018-06-22T18:26:12.087Z,19.36
2018-06-22T18:28:40.575Z,19.06
2018-06-22T18:31:09.297Z,19.11
2018-06-22T18:33:37.807Z,19.27
2018-06-22T18:36:06.495Z,19.07
2018-06-22T18:38:35.040Z,19.21
2018-06-22T18:41:03.662Z,19.00
2018-06-22T18:43:37.442Z,19.10
2018-06-22T18:46:05.989Z,18.79
2018-06-22T18:48:34.494Z,18.90
2018-06-22T18:51:03.204Z,18.97
2018-06-22T18:53:37.116Z,18.63
2018-06-22T18:57:09.391Z,18.83
2018-06-22T18:59:41.044Z,18.79
2018-06-22T19:02:14.778Z,18.68
2018-06-22T19:04:43.458Z,18.69
2018-06-22T19:07:12.070Z,18.72
2018-06-22T19:09:40.647Z,18.59
2018-06-22T19:12:09.238Z,18.62
2018-06-22T19:14:37.708Z,18.69
2018-06-22T19:17:06.607Z,18.67
2018-06-22T19:19:35.194Z,18.66
2018-06-22T19:22:03.698Z,18.58
2018-06-22T19:24:32.368Z,18.48
2018-06-22T19:27:00.873Z,18.46
2018-06-22T19:29:29.587Z,18.04
2018-06-22T19:31:58.190Z,18.32
2018-06-22T19:34:31.994Z,18.31
2018-06-22T19:37:00.619Z,18.27
2018-06-22T19:39:29.193Z,18.24
2018-06-22T19:44:57.606Z,18.17
2018-06-22T19:47:31.352Z,18.17
2018-06-22T19:50:05.093Z,18.09
2018-06-22T19:52:39.075Z,18.05
2018-06-22T19:55:07.743Z,18.00
2018-06-22T19:57:36.376Z,17.82
2018-06-22T20:00:09.137Z,17.77
2018-06-22T20:02:37.688Z,17.75
2018-06-22T20:05:06.836Z,17.49
2018-06-22T20:07:35.491Z,17.71
2018-06-22T20:10:04.852Z,17.70
2018-06-22T20:12:33.385Z,17.66
2018-06-22T20:15:01.851Z,17.60
2018-06-22T20:17:30.460Z,17.44
2018-06-22T20:19:59.001Z,17.47
2018-06-22T20:22:27.530Z,17.19
2018-06-22T20:25:01.504Z,17.26
2018-06-22T20:27:30.072Z,17.30
2018-06-22T20:29:58.534Z,17.28
2018-06-22T20:32:27.093Z,17.30
2018-06-22T20:35:00.754Z,17.27
2018-06-22T20:37:34.463Z,17.27
2018-06-22T20:40:08.365Z,17.19
2018-06-22T20:42:42.159Z,17.19
2018-06-22T20:45:15.993Z,17.17
2018-06-22T20:47:49.894Z,17.15
2018-06-22T20:50:23.717Z,16.90
2018-06-22T20:52:52.231Z,16.90
2018-06-22T20:55:20.776Z,16.91
2018-06-22T20:57:49.281Z,16.90
2018-06-22T21:00:18.052Z,16.88
2018-06-22T21:02:46.595Z,16.87
2018-06-22T21:05:15.082Z,16.85
2018-06-22T21:07:43.575Z,16.84
2018-06-22T21:10:12.741Z,16.81
2018-06-22T21:12:41.565Z,16.70
2018-06-22T21:15:10.718Z,16.59
2018-06-22T21:17:39.242Z,16.50
2018-06-22T21:20:07.734Z,16.31
2018-06-22T21:22:36.287Z,16.25
2018-06-22T21:25:04.864Z,16.23
2018-06-22T21:27:38.533Z,16.26
2018-06-22T21:30:13.907Z,16.31
2018-06-22T21:32:54.416Z,16.30
2018-06-22T21:35:28.206Z,16.34
2018-06-22T21:38:01.906Z,16.32
2018-06-22T21:40:30.472Z,16.17
2018-06-22T21:42:59.021Z,16.21
2018-06-22T21:45:27.627Z,16.15
2018-06-22T21:47:56.283Z,16.06
2018-06-22T21:50:24.872Z,16.01
2018-06-22T21:52:53.371Z,15.94
2018-06-22T21:55:21.911Z,15.79
2018-06-22T21:57:50.508Z,15.82
2018-06-22T22:00:30.719Z,15.78
2018-06-22T22:03:00.367Z,15.71
2018-06-22T22:05:29.600Z,15.69
2018-06-22T22:07:58.737Z,15.55
2018-06-22T22:10:32.618Z,15.32
2018-06-22T22:13:01.233Z,15.48
2018-06-22T22:15:30.090Z,15.49
2018-06-22T22:17:59.332Z,15.53
2018-06-22T22:20:28.005Z,15.43
2018-06-22T22:22:56.581Z,15.28
2018-06-22T22:25:25.134Z,15.36
2018-06-22T22:27:59.045Z,15.35
2018-06-22T22:30:29.182Z,15.22
2018-06-22T22:32:57.723Z,15.07
2018-06-22T22:35:26.685Z,14.91
2018-06-22T22:37:55.230Z,14.93
2018-06-22T22:40:24.393Z,14.84
2018-06-22T22:42:53.548Z,14.79
2018-06-22T22:45:22.154Z,14.73
2018-06-22T22:47:50.778Z,14.84
2018-06-22T22:50:19.492Z,14.88
2018-06-22T22:52:48.155Z,14.79
2018-06-22T22:55:17.390Z,14.81
2018-06-22T22:57:49.655Z,14.83
2018-06-22T23:00:18.306Z,14.74
2018-06-22T23:02:46.982Z,14.63
2018-06-22T23:05:15.480Z,14.56
2018-06-22T23:07:44.185Z,14.53
2018-06-22T23:10:12.689Z,14.52
2018-06-22T23:12:41.555Z,14.47
2018-06-22T23:15:11.432Z,14.40
2018-06-22T23:17:40.063Z,14.38
2018-06-22T23:20:09.238Z,14.37
2018-06-22T23:22:48.854Z,14.41
2018-06-22T23:25:17.314Z,14.33
2018-06-22T23:27:45.909Z,14.23
2018-06-22T23:30:14.505Z,14.27
2018-06-22T23:32:43.139Z,14.32
2018-06-22T23:35:12.351Z,14.19
2018-06-22T23:37:40.926Z,14.30
2018-06-22T23:40:10.242Z,14.24
2018-06-22T23:42:38.925Z,14.26
2018-06-22T23:45:07.481Z,14.23
2018-06-22T23:47:36.008Z,14.18
2018-06-22T23:50:04.531Z,14.14
2018-06-22T23:52:33.009Z,14.08
2018-06-22T23:55:01.608Z,14.13
2018-06-22T23:57:30.052Z,14.14
2018-06-22T23:59:59.149Z,14.10
